Pede Vento — CRLZ9 — position and weather

sailwx.info

Track history (hours):
 
Tides and Currents Weather Stations Pressure Air Temp Water Temp Dewpoint Dewpoint Depression Visibility Wind Speed Wind Dir Waves Ship Positions

Pede Vento

Last reported at 2014-Sep-21 15:33 UTC. Time now 2014-Oct-01 18:22 UTC.
Position N 38°42' W 009°10'.
Warning: this ship's position is 10 days out of date.

Length 12 m.

Type: Sailing vessel. MMSI: 263819560.

Date/timePositionNaut miles runAvg speedWind from/ knotsBaromVisibWave heightAir tempDewpointWater temp
2014-Sep-21 15:33N 38°42' W 009°10'2 1.7
2014-Sep-21 14:33N 38°42' W 009°12'5 4.5
2014-Sep-21 13:34N 38°43' W 009°07'2 1.9
2014-Sep-21 12:31N 38°45' W 009°05'2 2.3
2014-Sep-21 11:30N 38°43' W 009°07'4 4.7
2014-Sep-21 10:33N 38°41' W 009°12'2 0.1
2014-Sep-20 14:19N 38°42' W 009°10'2 2.6
2014-Sep-20 13:33N 38°41' W 009°08'4 3.9
2014-Sep-20 12:33N 38°45' W 009°06'3 3.5
2014-Sep-20 11:33N 38°42' W 009°08'  
2014-Sep-14 14:24N 38°42' W 009°10'1 0.6
2014-Sep-14 13:33N 38°42' W 009°11'3 2.7
2014-Sep-14 12:33N 38°42' W 009°14'1 0.5
2014-Sep-14 11:20N 38°41' W 009°14'3 4.3
2014-Sep-14 10:33N 38°42' W 009°10'  
Track history (hours):
 
Tides and Currents Weather Stations Pressure Air Temp Water Temp Dewpoint Dewpoint Depression Visibility Wind Speed Wind Dir Waves Ship Positions

Pede Vento

Last reported at 2014-Sep-21 15:33 UTC. Time now 2014-Oct-01 18:22 UTC.
Position N 38°42' W 009°10'.
Warning: this ship's position is 10 days out of date.

Length 12 m.

Type: Sailing vessel. MMSI: 263819560.

Date/timePositionNaut miles runAvg speedWind from/ knotsBaromVisibWave heightAir tempDewpointWater temp
2014-Sep-21 15:33N 38°42' W 009°10'2 1.7
2014-Sep-21 14:33N 38°42' W 009°12'5 4.5
2014-Sep-21 13:34N 38°43' W 009°07'2 1.9
2014-Sep-21 12:31N 38°45' W 009°05'2 2.3
2014-Sep-21 11:30N 38°43' W 009°07'4 4.7
2014-Sep-21 10:33N 38°41' W 009°12'2 0.1
2014-Sep-20 14:19N 38°42' W 009°10'2 2.6
2014-Sep-20 13:33N 38°41' W 009°08'4 3.9
2014-Sep-20 12:33N 38°45' W 009°06'3 3.5
2014-Sep-20 11:33N 38°42' W 009°08'  
2014-Sep-14 14:24N 38°42' W 009°10'1 0.6
2014-Sep-14 13:33N 38°42' W 009°11'3 2.7
2014-Sep-14 12:33N 38°42' W 009°14'1 0.5
2014-Sep-14 11:20N 38°41' W 009°14'3 4.3
2014-Sep-14 10:33N 38°42' W 009°10'  

Dump ship's entire track history